CYBN

CFB Borden Heliport

Borden, Ontario, Canada
METAR CYBN 251200Z AUTO 34004KT 290V010 9SM CLR 14/08 A3021 RMK SLP232
Observed Flight Rules
Jun-25 @ 12:00 UTC (14 minutes ago) Visual Flight Rules
Wind Visibility Clouds
340° at 4 knots 9 miles
  • Clear skies
Temperatures Readings
Current 14°C / 57°F
Dewpoint 8°C / 46°F
Humidity 67%
Altimeter 30.21" Hg
Pressure 1023.2 hPa
Elevation 223
METAR CYBN 251200Z AUTO 34004KT 290V010 9SM CLR 14/08 A3021 RMK SLP232
Observed Flight Rules
Jun-25 @ 12:00 UTC
(14 minutes ago)
VFR
Wind Visibility
340° at 4 knots 9 miles
Clouds
  • Clear skies
Temperature Dewpoint
14°C / 57°F 8°C / 46°F
Humidity Altimeter Pressure
67% 30.21" Hg 1023.2 hPa